sensor_id;sensor_type;location;lat;lon;timestamp;temperature;humidity
15013;DHT22;7603;49.432;11.418;2022-08-01T00:01:51;18.30;99.90
15013;DHT22;7603;49.432;11.418;2022-08-01T00:04:17;18.30;99.90
15013;DHT22;7603;49.432;11.418;2022-08-01T00:06:43;18.30;99.90
15013;DHT22;7603;49.432;11.418;2022-08-01T00:09:08;18.20;99.90
15013;DHT22;7603;49.432;11.418;2022-08-01T00:11:34;18.20;99.90
15013;DHT22;7603;49.432;11.418;2022-08-01T00:13:59;18.10;99.90
15013;DHT22;7603;49.432;11.418;2022-08-01T00:16:25;18.10;99.90
15013;DHT22;7603;49.432;11.418;2022-08-01T00:18:52;18.00;99.90
15013;DHT22;7603;49.432;11.418;2022-08-01T00:21:18;18.00;99.90
15013;DHT22;7603;49.432;11.418;2022-08-01T00:23:44;18.00;99.90
15013;DHT22;7603;49.432;11.418;2022-08-01T00:26:14;18.00;99.90
15013;DHT22;7603;49.432;11.418;2022-08-01T00:28:41;17.90;99.90
15013;DHT22;7603;49.432;11.418;2022-08-01T00:31:07;17.80;99.90
15013;DHT22;7603;49.432;11.418;2022-08-01T00:33:32;17.80;99.90
15013;DHT22;7603;49.432;11.418;2022-08-01T00:35:58;17.80;99.90
15013;DHT22;7603;49.432;11.418;2022-08-01T00:38:24;17.80;99.90
15013;DHT22;7603;49.432;11.418;2022-08-01T00:40:50;17.70;99.90
15013;DHT22;7603;49.432;11.418;2022-08-01T00:43:16;17.70;99.90
15013;DHT22;7603;49.432;11.418;2022-08-01T00:45:42;17.70;99.90
15013;DHT22;7603;49.432;11.418;2022-08-01T00:48:08;17.70;99.90
15013;DHT22;7603;49.432;11.418;2022-08-01T00:50:34;17.70;99.90
15013;DHT22;7603;49.432;11.418;2022-08-01T00:53:00;17.70;99.90
15013;DHT22;7603;49.432;11.418;2022-08-01T00:55:29;17.70;99.90
15013;DHT22;7603;49.432;11.418;2022-08-01T00:57:56;17.70;99.90
15013;DHT22;7603;49.432;11.418;2022-08-01T01:00:23;17.60;99.90
15013;DHT22;7603;49.432;11.418;2022-08-01T01:02:48;17.60;99.90
15013;DHT22;7603;49.432;11.418;2022-08-01T01:05:14;17.60;99.90
15013;DHT22;7603;49.432;11.418;2022-08-01T01:10:52;17.50;99.90
15013;DHT22;7603;49.432;11.418;2022-08-01T01:13:31;17.40;99.90
15013;DHT22;7603;49.432;11.418;2022-08-01T01:16:04;17.40;99.90
15013;DHT22;7603;49.432;11.418;2022-08-01T01:18:38;17.30;99.90
15013;DHT22;7603;49.432;11.418;2022-08-01T01:26:57;17.30;99.90
15013;DHT22;7603;49.432;11.418;2022-08-01T01:29:31;17.30;99.90
15013;DHT22;7603;49.432;11.418;2022-08-01T01:32:05;17.30;99.90
15013;DHT22;7603;49.432;11.418;2022-08-01T01:34:35;17.30;99.90
15013;DHT22;7603;49.432;11.418;2022-08-01T01:37:04;17.20;99.90
15013;DHT22;7603;49.432;11.418;2022-08-01T01:39:32;17.20;99.90
15013;DHT22;7603;49.432;11.418;2022-08-01T01:42:00;17.20;99.90
15013;DHT22;7603;49.432;11.418;2022-08-01T01:44:27;17.10;99.90
15013;DHT22;7603;49.432;11.418;2022-08-01T01:46:54;17.10;99.90
15013;DHT22;7603;49.432;11.418;2022-08-01T01:49:24;17.10;99.90
15013;DHT22;7603;49.432;11.418;2022-08-01T01:51:52;17.00;99.90
15013;DHT22;7603;49.432;11.418;2022-08-01T01:54:19;17.00;99.90
15013;DHT22;7603;49.432;11.418;2022-08-01T01:56:45;17.00;99.90
15013;DHT22;7603;49.432;11.418;2022-08-01T01:59:24;17.00;99.90
15013;DHT22;7603;49.432;11.418;2022-08-01T02:01:52;17.00;99.90
15013;DHT22;7603;49.432;11.418;2022-08-01T02:04:20;17.00;99.90
15013;DHT22;7603;49.432;11.418;2022-08-01T02:06:46;17.00;99.90
15013;DHT22;7603;49.432;11.418;2022-08-01T02:09:16;17.10;99.90
15013;DHT22;7603;49.432;11.418;2022-08-01T02:11:45;17.10;99.90
15013;DHT22;7603;49.432;11.418;2022-08-01T02:14:12;17.10;99.90
15013;DHT22;7603;49.432;11.418;2022-08-01T02:16:40;17.20;99.90
15013;DHT22;7603;49.432;11.418;2022-08-01T02:19:06;17.30;99.90
15013;DHT22;7603;49.432;11.418;2022-08-01T02:21:38;17.40;99.90
15013;DHT22;7603;49.432;11.418;2022-08-01T02:24:17;17.50;99.90
15013;DHT22;7603;49.432;11.418;2022-08-01T02:26:48;17.60;99.90
15013;DHT22;7603;49.432;11.418;2022-08-01T02:29:22;17.70;99.90
15013;DHT22;7603;49.432;11.418;2022-08-01T02:31:52;17.70;99.90
15013;DHT22;7603;49.432;11.418;2022-08-01T02:34:20;17.80;99.90
15013;DHT22;7603;49.432;11.418;2022-08-01T02:36:47;17.80;99.90
15013;DHT22;7603;49.432;11.418;2022-08-01T02:39:16;17.90;99.90
15013;DHT22;7603;49.432;11.418;2022-08-01T02:41:50;17.80;99.90
15013;DHT22;7603;49.432;11.418;2022-08-01T02:44:26;17.90;99.90
15013;DHT22;7603;49.432;11.418;2022-08-01T02:46:57;17.90;99.90
15013;DHT22;7603;49.432;11.418;2022-08-01T02:49:29;17.90;99.90
15013;DHT22;7603;49.432;11.418;2022-08-01T02:51:57;18.00;99.90
15013;DHT22;7603;49.432;11.418;2022-08-01T02:54:24;18.00;99.90
15013;DHT22;7603;49.432;11.418;2022-08-01T02:56:51;17.90;99.90
15013;DHT22;7603;49.432;11.418;2022-08-01T02:59:19;17.90;99.90
15013;DHT22;7603;49.432;11.418;2022-08-01T03:01:47;17.80;99.90
15013;DHT22;7603;49.432;11.418;2022-08-01T03:04:14;17.80;99.90
15013;DHT22;7603;49.432;11.418;2022-08-01T03:06:43;17.70;99.90
15013;DHT22;7603;49.432;11.418;2022-08-01T03:09:10;17.70;99.90
15013;DHT22;7603;49.432;11.418;2022-08-01T03:11:38;17.60;99.90
15013;DHT22;7603;49.432;11.418;2022-08-01T03:14:07;17.50;99.90
15013;DHT22;7603;49.432;11.418;2022-08-01T03:16:35;17.40;99.90
15013;DHT22;7603;49.432;11.418;2022-08-01T03:19:03;17.20;99.90
15013;DHT22;7603;49.432;11.418;2022-08-01T03:21:30;17.10;99.90
15013;DHT22;7603;49.432;11.418;2022-08-01T03:23:58;17.10;99.90
15013;DHT22;7603;49.432;11.418;2022-08-01T03:26:30;16.90;99.90
15013;DHT22;7603;49.432;11.418;2022-08-01T03:28:59;16.80;99.90
15013;DHT22;7603;49.432;11.418;2022-08-01T03:31:25;16.70;99.90
15013;DHT22;7603;49.432;11.418;2022-08-01T03:33:52;16.60;99.90
15013;DHT22;7603;49.432;11.418;2022-08-01T03:36:21;16.50;99.90
15013;DHT22;7603;49.432;11.418;2022-08-01T03:38:50;16.50;99.90
15013;DHT22;7603;49.432;11.418;2022-08-01T03:41:20;16.40;99.90
15013;DHT22;7603;49.432;11.418;2022-08-01T03:43:57;16.20;99.90
15013;DHT22;7603;49.432;11.418;2022-08-01T03:46:35;16.20;99.90
15013;DHT22;7603;49.432;11.418;2022-08-01T03:49:07;16.10;99.90
15013;DHT22;7603;49.432;11.418;2022-08-01T03:51:35;16.00;99.90
15013;DHT22;7603;49.432;11.418;2022-08-01T03:54:04;16.00;99.90
15013;DHT22;7603;49.432;11.418;2022-08-01T03:56:31;15.90;99.90
15013;DHT22;7603;49.432;11.418;2022-08-01T03:58:59;15.90;99.90
15013;DHT22;7603;49.432;11.418;2022-08-01T04:01:26;15.80;99.90
15013;DHT22;7603;49.432;11.418;2022-08-01T04:03:52;15.80;99.90
15013;DHT22;7603;49.432;11.418;2022-08-01T04:06:18;15.70;99.90
15013;DHT22;7603;49.432;11.418;2022-08-01T04:08:43;15.70;99.90
15013;DHT22;7603;49.432;11.418;2022-08-01T04:11:21;15.70;99.90
15013;DHT22;7603;49.432;11.418;2022-08-01T04:13:47;15.60;99.90
15013;DHT22;7603;49.432;11.418;2022-08-01T04:16:13;15.60;99.90
15013;DHT22;7603;49.432;11.418;2022-08-01T04:18:39;15.60;99.90
15013;DHT22;7603;49.432;11.418;2022-08-01T04:21:04;15.60;99.90
15013;DHT22;7603;49.432;11.418;2022-08-01T04:23:31;15.60;99.90
15013;DHT22;7603;49.432;11.418;2022-08-01T04:25:59;15.60;99.90
15013;DHT22;7603;49.432;11.418;2022-08-01T04:28:25;15.60;99.90
15013;DHT22;7603;49.432;11.418;2022-08-01T04:30:54;15.70;99.90
15013;DHT22;7603;49.432;11.418;2022-08-01T04:33:21;15.70;99.90
15013;DHT22;7603;49.432;11.418;2022-08-01T04:35:48;15.70;99.90
15013;DHT22;7603;49.432;11.418;2022-08-01T04:38:19;15.80;99.90
15013;DHT22;7603;49.432;11.418;2022-08-01T04:40:47;15.90;99.90
15013;DHT22;7603;49.432;11.418;2022-08-01T04:43:14;16.10;99.90
15013;DHT22;7603;49.432;11.418;2022-08-01T04:45:40;16.20;99.90
15013;DHT22;7603;49.432;11.418;2022-08-01T04:48:06;16.40;99.90
15013;DHT22;7603;49.432;11.418;2022-08-01T04:50:35;16.60;99.90
15013;DHT22;7603;49.432;11.418;2022-08-01T04:53:03;16.70;99.90
15013;DHT22;7603;49.432;11.418;2022-08-01T04:55:29;16.90;99.90
15013;DHT22;7603;49.432;11.418;2022-08-01T04:57:56;17.10;99.90
15013;DHT22;7603;49.432;11.418;2022-08-01T05:00:22;17.30;99.90
15013;DHT22;7603;49.432;11.418;2022-08-01T05:02:47;17.40;99.90
15013;DHT22;7603;49.432;11.418;2022-08-01T05:05:13;17.60;99.90
15013;DHT22;7603;49.432;11.418;2022-08-01T05:07:40;17.70;99.90
15013;DHT22;7603;49.432;11.418;2022-08-01T05:10:06;17.80;99.90
15013;DHT22;7603;49.432;11.418;2022-08-01T05:12:31;18.00;99.90
15013;DHT22;7603;49.432;11.418;2022-08-01T05:14:58;18.10;99.90
15013;DHT22;7603;49.432;11.418;2022-08-01T05:17:24;18.30;99.90
15013;DHT22;7603;49.432;11.418;2022-08-01T05:19:49;18.40;99.90
15013;DHT22;7603;49.432;11.418;2022-08-01T05:22:15;18.60;99.90
15013;DHT22;7603;49.432;11.418;2022-08-01T05:24:41;18.70;99.90
15013;DHT22;7603;49.432;11.418;2022-08-01T05:27:08;18.90;99.90
15013;DHT22;7603;49.432;11.418;2022-08-01T05:29:34;19.00;99.90
15013;DHT22;7603;49.432;11.418;2022-08-01T05:32:00;19.10;99.90
15013;DHT22;7603;49.432;11.418;2022-08-01T05:34:26;19.30;99.90
15013;DHT22;7603;49.432;11.418;2022-08-01T05:36:52;19.40;99.90
15013;DHT22;7603;49.432;11.418;2022-08-01T05:39:18;19.70;99.90
15013;DHT22;7603;49.432;11.418;2022-08-01T05:41:44;19.90;99.90
15013;DHT22;7603;49.432;11.418;2022-08-01T05:44:09;20.00;99.90
15013;DHT22;7603;49.432;11.418;2022-08-01T05:46:35;20.20;99.90
15013;DHT22;7603;49.432;11.418;2022-08-01T05:49:02;20.30;99.90
15013;DHT22;7603;49.432;11.418;2022-08-01T05:51:28;20.40;99.90
15013;DHT22;7603;49.432;11.418;2022-08-01T05:53:54;20.50;99.90
15013;DHT22;7603;49.432;11.418;2022-08-01T05:56:20;20.60;99.90
15013;DHT22;7603;49.432;11.418;2022-08-01T05:58:46;20.70;99.90
15013;DHT22;7603;49.432;11.418;2022-08-01T06:01:12;20.80;99.90
15013;DHT22;7603;49.432;11.418;2022-08-01T06:03:38;21.00;99.90
15013;DHT22;7603;49.432;11.418;2022-08-01T06:06:03;21.20;99.90
15013;DHT22;7603;49.432;11.418;2022-08-01T06:08:30;21.40;99.90
15013;DHT22;7603;49.432;11.418;2022-08-01T06:10:56;21.70;99.90
15013;DHT22;7603;49.432;11.418;2022-08-01T06:13:21;21.90;99.90
15013;DHT22;7603;49.432;11.418;2022-08-01T06:15:47;22.10;99.90
15013;DHT22;7603;49.432;11.418;2022-08-01T06:18:14;22.20;99.90
15013;DHT22;7603;49.432;11.418;2022-08-01T06:20:39;22.20;99.90
15013;DHT22;7603;49.432;11.418;2022-08-01T06:23:05;22.10;99.90
15013;DHT22;7603;49.432;11.418;2022-08-01T06:25:31;22.20;99.90
15013;DHT22;7603;49.432;11.418;2022-08-01T06:27:57;22.20;99.90
15013;DHT22;7603;49.432;11.418;2022-08-01T06:30:23;22.20;99.90
15013;DHT22;7603;49.432;11.418;2022-08-01T06:32:48;22.10;99.90
15013;DHT22;7603;49.432;11.418;2022-08-01T06:35:14;22.20;99.90
15013;DHT22;7603;49.432;11.418;2022-08-01T06:37:40;22.40;99.90
15013;DHT22;7603;49.432;11.418;2022-08-01T06:40:08;22.50;99.90
15013;DHT22;7603;49.432;11.418;2022-08-01T06:42:35;22.60;99.90
15013;DHT22;7603;49.432;11.418;2022-08-01T06:45:08;22.60;99.90
15013;DHT22;7603;49.432;11.418;2022-08-01T06:47:33;22.60;99.90
15013;DHT22;7603;49.432;11.418;2022-08-01T06:49:59;22.60;99.90
15013;DHT22;7603;49.432;11.418;2022-08-01T06:52:25;22.80;99.90
15013;DHT22;7603;49.432;11.418;2022-08-01T06:54:51;23.00;99.90
15013;DHT22;7603;49.432;11.418;2022-08-01T06:57:17;23.20;99.90
15013;DHT22;7603;49.432;11.418;2022-08-01T06:59:43;23.40;99.90
15013;DHT22;7603;49.432;11.418;2022-08-01T07:02:09;23.50;99.90
15013;DHT22;7603;49.432;11.418;2022-08-01T07:04:34;23.80;99.90
15013;DHT22;7603;49.432;11.418;2022-08-01T07:07:00;24.00;99.90
15013;DHT22;7603;49.432;11.418;2022-08-01T07:09:26;24.30;99.90
15013;DHT22;7603;49.432;11.418;2022-08-01T07:11:52;24.40;99.90
15013;DHT22;7603;49.432;11.418;2022-08-01T07:14:20;24.50;99.90
15013;DHT22;7603;49.432;11.418;2022-08-01T07:16:45;24.70;99.90
15013;DHT22;7603;49.432;11.418;2022-08-01T07:19:11;24.90;99.90
15013;DHT22;7603;49.432;11.418;2022-08-01T07:21:38;25.10;99.90
15013;DHT22;7603;49.432;11.418;2022-08-01T07:24:04;25.40;99.90
15013;DHT22;7603;49.432;11.418;2022-08-01T07:26:30;25.60;99.90
15013;DHT22;7603;49.432;11.418;2022-08-01T07:28:56;25.80;99.90
15013;DHT22;7603;49.432;11.418;2022-08-01T07:31:22;25.90;99.90
15013;DHT22;7603;49.432;11.418;2022-08-01T07:33:48;25.80;99.90
15013;DHT22;7603;49.432;11.418;2022-08-01T07:36:17;25.70;99.90
15013;DHT22;7603;49.432;11.418;2022-08-01T07:38:43;25.80;99.90
15013;DHT22;7603;49.432;11.418;2022-08-01T07:41:09;25.90;99.90
15013;DHT22;7603;49.432;11.418;2022-08-01T07:43:35;26.00;99.90
15013;DHT22;7603;49.432;11.418;2022-08-01T07:46:02;26.10;99.90
15013;DHT22;7603;49.432;11.418;2022-08-01T07:48:28;26.10;99.90
15013;DHT22;7603;49.432;11.418;2022-08-01T07:50:54;26.00;99.90
15013;DHT22;7603;49.432;11.418;2022-08-01T07:53:20;25.90;99.90
15013;DHT22;7603;49.432;11.418;2022-08-01T07:55:46;25.70;99.90
15013;DHT22;7603;49.432;11.418;2022-08-01T07:58:11;25.60;99.90
15013;DHT22;7603;49.432;11.418;2022-08-01T08:00:37;25.60;99.90
15013;DHT22;7603;49.432;11.418;2022-08-01T08:03:03;25.60;99.90
15013;DHT22;7603;49.432;11.418;2022-08-01T08:05:28;25.60;99.90
15013;DHT22;7603;49.432;11.418;2022-08-01T08:07:54;25.60;99.90
15013;DHT22;7603;49.432;11.418;2022-08-01T08:10:20;25.60;99.90
15013;DHT22;7603;49.432;11.418;2022-08-01T08:12:46;25.50;99.90
15013;DHT22;7603;49.432;11.418;2022-08-01T08:15:13;25.40;99.90
15013;DHT22;7603;49.432;11.418;2022-08-01T08:17:39;25.40;99.90
15013;DHT22;7603;49.432;11.418;2022-08-01T08:20:06;25.40;99.90
15013;DHT22;7603;49.432;11.418;2022-08-01T08:22:32;25.40;99.90
15013;DHT22;7603;49.432;11.418;2022-08-01T08:24:58;25.40;99.90
15013;DHT22;7603;49.432;11.418;2022-08-01T08:27:24;25.50;99.90
15013;DHT22;7603;49.432;11.418;2022-08-01T08:29:50;25.80;99.90
15013;DHT22;7603;49.432;11.418;2022-08-01T08:32:16;26.10;99.90
15013;DHT22;7603;49.432;11.418;2022-08-01T08:34:41;26.40;99.90
15013;DHT22;7603;49.432;11.418;2022-08-01T08:37:07;26.40;99.90
15013;DHT22;7603;49.432;11.418;2022-08-01T08:39:33;26.60;99.90
15013;DHT22;7603;49.432;11.418;2022-08-01T08:42:04;26.80;99.90
15013;DHT22;7603;49.432;11.418;2022-08-01T08:44:31;27.00;99.90
15013;DHT22;7603;49.432;11.418;2022-08-01T08:46:58;27.20;99.90
15013;DHT22;7603;49.432;11.418;2022-08-01T08:49:28;27.30;99.90
15013;DHT22;7603;49.432;11.418;2022-08-01T08:51:58;27.30;99.90
15013;DHT22;7603;49.432;11.418;2022-08-01T08:54:25;27.30;99.90
15013;DHT22;7603;49.432;11.418;2022-08-01T08:56:52;27.30;99.90
15013;DHT22;7603;49.432;11.418;2022-08-01T08:59:19;27.00;99.90
15013;DHT22;7603;49.432;11.418;2022-08-01T09:01:46;26.80;99.90
15013;DHT22;7603;49.432;11.418;2022-08-01T09:04:11;26.80;99.90
15013;DHT22;7603;49.432;11.418;2022-08-01T09:06:38;26.90;99.90
15013;DHT22;7603;49.432;11.418;2022-08-01T09:09:04;26.90;99.90
15013;DHT22;7603;49.432;11.418;2022-08-01T09:11:30;27.10;99.80
15013;DHT22;7603;49.432;11.418;2022-08-01T09:14:05;27.50;99.90
15013;DHT22;7603;49.432;11.418;2022-08-01T09:16:32;27.90;98.10
15013;DHT22;7603;49.432;11.418;2022-08-01T09:19:14;28.40;96.70
15013;DHT22;7603;49.432;11.418;2022-08-01T09:21:59;29.00;95.50
15013;DHT22;7603;49.432;11.418;2022-08-01T09:24:29;29.60;93.40
15013;DHT22;7603;49.432;11.418;2022-08-01T09:26:55;30.10;91.60
15013;DHT22;7603;49.432;11.418;2022-08-01T09:29:26;30.20;84.90
15013;DHT22;7603;49.432;11.418;2022-08-01T09:31:52;30.30;81.90
15013;DHT22;7603;49.432;11.418;2022-08-01T09:34:29;30.10;81.90
15013;DHT22;7603;49.432;11.418;2022-08-01T09:37:04;30.00;82.60
15013;DHT22;7603;49.432;11.418;2022-08-01T09:39:33;30.20;81.30
15013;DHT22;7603;49.432;11.418;2022-08-01T09:42:19;30.30;79.70
15013;DHT22;7603;49.432;11.418;2022-08-01T09:44:45;30.30;77.70
15013;DHT22;7603;49.432;11.418;2022-08-01T09:47:12;29.60;79.30
15013;DHT22;7603;49.432;11.418;2022-08-01T09:49:40;29.50;80.60
15013;DHT22;7603;49.432;11.418;2022-08-01T09:52:18;29.80;80.60
15013;DHT22;7603;49.432;11.418;2022-08-01T09:54:56;30.20;75.20
15013;DHT22;7603;49.432;11.418;2022-08-01T09:57:22;30.10;73.20
15013;DHT22;7603;49.432;11.418;2022-08-01T09:59:50;30.30;74.60
15013;DHT22;7603;49.432;11.418;2022-08-01T10:02:36;30.30;72.20
15013;DHT22;7603;49.432;11.418;2022-08-01T10:05:05;30.30;72.30
15013;DHT22;7603;49.432;11.418;2022-08-01T10:07:31;30.50;75.60
15013;DHT22;7603;49.432;11.418;2022-08-01T10:10:12;31.00;76.80
15013;DHT22;7603;49.432;11.418;2022-08-01T10:12:39;31.50;73.40
15013;DHT22;7603;49.432;11.418;2022-08-01T10:15:07;31.90;73.00
15013;DHT22;7603;49.432;11.418;2022-08-01T10:17:34;31.80;70.30
15013;DHT22;7603;49.432;11.418;2022-08-01T10:20:02;31.30;68.60
15013;DHT22;7603;49.432;11.418;2022-08-01T10:22:31;31.10;69.50
15013;DHT22;7603;49.432;11.418;2022-08-01T10:24:57;30.90;69.70
15013;DHT22;7603;49.432;11.418;2022-08-01T10:27:28;30.40;70.50
15013;DHT22;7603;49.432;11.418;2022-08-01T10:29:57;29.90;71.40
15013;DHT22;7603;49.432;11.418;2022-08-01T10:32:32;29.90;73.40
15013;DHT22;7603;49.432;11.418;2022-08-01T10:34:59;30.80;72.20
15013;DHT22;7603;49.432;11.418;2022-08-01T10:37:26;32.50;68.40
15013;DHT22;7603;49.432;11.418;2022-08-01T10:39:52;34.30;63.20
15013;DHT22;7603;49.432;11.418;2022-08-01T10:42:18;36.00;58.80
15013;DHT22;7603;49.432;11.418;2022-08-01T10:44:44;37.90;54.50
15013;DHT22;7603;49.432;11.418;2022-08-01T10:47:14;39.50;50.40
15013;DHT22;7603;49.432;11.418;2022-08-01T10:49:56;40.80;47.00
15013;DHT22;7603;49.432;11.418;2022-08-01T10:52:24;42.20;43.00
15013;DHT22;7603;49.432;11.418;2022-08-01T10:55:02;42.30;40.30
15013;DHT22;7603;49.432;11.418;2022-08-01T10:57:44;41.60;39.90
15013;DHT22;7603;49.432;11.418;2022-08-01T11:00:20;40.30;41.00
15013;DHT22;7603;49.432;11.418;2022-08-01T11:03:00;39.20;42.30
15013;DHT22;7603;49.432;11.418;2022-08-01T11:05:28;37.90;43.10
15013;DHT22;7603;49.432;11.418;2022-08-01T11:07:55;37.00;44.80
15013;DHT22;7603;49.432;11.418;2022-08-01T11:10:38;36.40;46.20
15013;DHT22;7603;49.432;11.418;2022-08-01T11:13:04;35.90;47.50
15013;DHT22;7603;49.432;11.418;2022-08-01T11:15:33;35.80;48.50
15013;DHT22;7603;49.432;11.418;2022-08-01T11:18:01;36.80;48.50
15013;DHT22;7603;49.432;11.418;2022-08-01T11:20:33;37.60;46.30
15013;DHT22;7603;49.432;11.418;2022-08-01T11:30:47;42.00;39.20
15013;DHT22;7603;49.432;11.418;2022-08-01T11:33:15;42.80;38.10
15013;DHT22;7603;49.432;11.418;2022-08-01T11:41:25;40.40;39.80
15013;DHT22;7603;49.432;11.418;2022-08-01T11:44:02;39.30;41.40
15013;DHT22;7603;49.432;11.418;2022-08-01T11:46:47;38.30;42.60
15013;DHT22;7603;49.432;11.418;2022-08-01T11:49:30;37.40;44.30
15013;DHT22;7603;49.432;11.418;2022-08-01T11:52:18;36.50;45.50
15013;DHT22;7603;49.432;11.418;2022-08-01T11:57:29;35.40;47.50
15013;DHT22;7603;49.432;11.418;2022-08-01T11:59:57;35.40;47.90
15013;DHT22;7603;49.432;11.418;2022-08-01T12:02:31;35.20;48.00
15013;DHT22;7603;49.432;11.418;2022-08-01T12:05:02;35.10;48.20
15013;DHT22;7603;49.432;11.418;2022-08-01T12:07:31;35.00;48.40
15013;DHT22;7603;49.432;11.418;2022-08-01T12:10:12;34.80;48.30
15013;DHT22;7603;49.432;11.418;2022-08-01T12:12:46;34.60;48.50
15013;DHT22;7603;49.432;11.418;2022-08-01T12:15:12;34.50;48.70
15013;DHT22;7603;49.432;11.418;2022-08-01T12:17:44;34.50;49.10
15013;DHT22;7603;49.432;11.418;2022-08-01T12:20:12;34.40;49.40
15013;DHT22;7603;49.432;11.418;2022-08-01T12:22:38;34.20;49.40
15013;DHT22;7603;49.432;11.418;2022-08-01T12:25:14;34.00;49.30
15013;DHT22;7603;49.432;11.418;2022-08-01T12:27:42;33.90;49.90
15013;DHT22;7603;49.432;11.418;2022-08-01T12:30:11;33.70;50.50
15013;DHT22;7603;49.432;11.418;2022-08-01T12:32:39;33.30;51.10
15013;DHT22;7603;49.432;11.418;2022-08-01T12:35:06;33.10;52.00
15013;DHT22;7603;49.432;11.418;2022-08-01T12:37:40;33.10;52.20
15013;DHT22;7603;49.432;11.418;2022-08-01T12:40:16;33.30;52.20
15013;DHT22;7603;49.432;11.418;2022-08-01T12:42:44;33.60;51.70
15013;DHT22;7603;49.432;11.418;2022-08-01T12:45:16;34.10;50.90
15013;DHT22;7603;49.432;11.418;2022-08-01T12:47:43;34.30;50.60
15013;DHT22;7603;49.432;11.418;2022-08-01T12:50:18;34.20;50.50
15013;DHT22;7603;49.432;11.418;2022-08-01T12:52:44;34.00;50.50
15013;DHT22;7603;49.432;11.418;2022-08-01T12:57:41;34.00;51.00
15013;DHT22;7603;49.432;11.418;2022-08-01T13:00:21;34.80;50.40
15013;DHT22;7603;49.432;11.418;2022-08-01T13:02:48;36.00;48.70
15013;DHT22;7603;49.432;11.418;2022-08-01T13:05:15;37.40;46.90
15013;DHT22;7603;49.432;11.418;2022-08-01T13:07:49;38.20;45.20
15013;DHT22;7603;49.432;11.418;2022-08-01T13:10:27;38.00;44.70
15013;DHT22;7603;49.432;11.418;2022-08-01T13:12:55;37.60;44.60
15013;DHT22;7603;49.432;11.418;2022-08-01T13:15:32;37.20;45.30
15013;DHT22;7603;49.432;11.418;2022-08-01T13:18:01;36.60;46.00
15013;DHT22;7603;49.432;11.418;2022-08-01T13:20:30;36.00;46.70
15013;DHT22;7603;49.432;11.418;2022-08-01T13:25:51;35.20;48.40
15013;DHT22;7603;49.432;11.418;2022-08-01T13:28:23;34.80;48.60
15013;DHT22;7603;49.432;11.418;2022-08-01T13:31:04;34.80;49.10
15013;DHT22;7603;49.432;11.418;2022-08-01T13:33:44;35.90;48.70
15013;DHT22;7603;49.432;11.418;2022-08-01T13:36:10;38.30;45.80
15013;DHT22;7603;49.432;11.418;2022-08-01T13:38:36;39.80;43.50
15013;DHT22;7603;49.432;11.418;2022-08-01T13:41:20;40.40;42.10
15013;DHT22;7603;49.432;11.418;2022-08-01T13:43:46;41.00;41.30
15013;DHT22;7603;49.432;11.418;2022-08-01T13:46:12;42.20;40.10
15013;DHT22;7603;49.432;11.418;2022-08-01T13:48:37;43.70;38.30
15013;DHT22;7603;49.432;11.418;2022-08-01T13:51:03;44.50;37.20
15013;DHT22;7603;49.432;11.418;2022-08-01T13:53:28;45.90;35.90
15013;DHT22;7603;49.432;11.418;2022-08-01T13:55:54;47.00;34.30
15013;DHT22;7603;49.432;11.418;2022-08-01T13:58:20;47.10;33.40
15013;DHT22;7603;49.432;11.418;2022-08-01T14:00:46;46.20;33.50
15013;DHT22;7603;49.432;11.418;2022-08-01T14:03:13;45.00;34.10
15013;DHT22;7603;49.432;11.418;2022-08-01T14:05:39;44.20;35.00
15013;DHT22;7603;49.432;11.418;2022-08-01T14:08:05;43.80;35.50
15013;DHT22;7603;49.432;11.418;2022-08-01T14:10:31;44.40;35.00
15013;DHT22;7603;49.432;11.418;2022-08-01T14:12:57;45.80;34.10
15013;DHT22;7603;49.432;11.418;2022-08-01T14:15:23;46.50;33.10
15013;DHT22;7603;49.432;11.418;2022-08-01T14:17:49;46.40;32.30
15013;DHT22;7603;49.432;11.418;2022-08-01T14:20:14;46.40;32.30
15013;DHT22;7603;49.432;11.418;2022-08-01T14:22:40;46.50;32.00
15013;DHT22;7603;49.432;11.418;2022-08-01T14:25:07;46.20;31.60
15013;DHT22;7603;49.432;11.418;2022-08-01T14:27:33;45.30;32.20
15013;DHT22;7603;49.432;11.418;2022-08-01T14:30:02;44.50;33.10
15013;DHT22;7603;49.432;11.418;2022-08-01T14:32:28;44.60;33.20
15013;DHT22;7603;49.432;11.418;2022-08-01T14:34:54;45.70;32.80
15013;DHT22;7603;49.432;11.418;2022-08-01T14:37:20;46.80;31.90
15013;DHT22;7603;49.432;11.418;2022-08-01T14:39:46;47.00;31.10
15013;DHT22;7603;49.432;11.418;2022-08-01T14:42:12;46.40;31.30
15013;DHT22;7603;49.432;11.418;2022-08-01T14:44:37;45.30;31.90
15013;DHT22;7603;49.432;11.418;2022-08-01T14:47:03;43.90;32.70
15013;DHT22;7603;49.432;11.418;2022-08-01T14:49:29;43.00;34.20
15013;DHT22;7603;49.432;11.418;2022-08-01T14:51:54;43.10;34.70
15013;DHT22;7603;49.432;11.418;2022-08-01T14:54:20;43.60;34.30
15013;DHT22;7603;49.432;11.418;2022-08-01T14:56:45;43.40;34.00
15013;DHT22;7603;49.432;11.418;2022-08-01T14:59:11;43.00;34.30
15013;DHT22;7603;49.432;11.418;2022-08-01T15:01:37;42.50;34.30
15013;DHT22;7603;49.432;11.418;2022-08-01T15:04:02;42.10;35.20
15013;DHT22;7603;49.432;11.418;2022-08-01T15:06:28;41.60;34.90
15013;DHT22;7603;49.432;11.418;2022-08-01T15:08:54;41.00;35.50
15013;DHT22;7603;49.432;11.418;2022-08-01T15:11:20;40.30;36.40
15013;DHT22;7603;49.432;11.418;2022-08-01T15:13:46;40.80;37.70
15013;DHT22;7603;49.432;11.418;2022-08-01T15:16:31;41.40;36.20
15013;DHT22;7603;49.432;11.418;2022-08-01T15:18:57;43.00;35.10
15013;DHT22;7603;49.432;11.418;2022-08-01T15:21:22;43.60;34.00
15013;DHT22;7603;49.432;11.418;2022-08-01T15:23:48;43.60;33.90
15013;DHT22;7603;49.432;11.418;2022-08-01T15:26:13;43.40;33.70
15013;DHT22;7603;49.432;11.418;2022-08-01T15:28:39;43.10;33.50
15013;DHT22;7603;49.432;11.418;2022-08-01T15:31:05;42.80;33.60
15013;DHT22;7603;49.432;11.418;2022-08-01T15:33:30;43.20;34.50
15013;DHT22;7603;49.432;11.418;2022-08-01T15:35:56;43.90;33.30
15013;DHT22;7603;49.432;11.418;2022-08-01T15:38:21;45.00;32.20
15013;DHT22;7603;49.432;11.418;2022-08-01T15:40:47;45.00;31.90
15013;DHT22;7603;49.432;11.418;2022-08-01T15:43:13;44.20;32.10
15013;DHT22;7603;49.432;11.418;2022-08-01T15:45:38;43.00;32.80
15013;DHT22;7603;49.432;11.418;2022-08-01T15:48:04;41.90;34.10
15013;DHT22;7603;49.432;11.418;2022-08-01T15:50:30;41.80;34.90
15013;DHT22;7603;49.432;11.418;2022-08-01T15:52:55;42.80;34.60
15013;DHT22;7603;49.432;11.418;2022-08-01T15:55:21;44.80;32.90
15013;DHT22;7603;49.432;11.418;2022-08-01T15:57:46;47.00;31.40
15013;DHT22;7603;49.432;11.418;2022-08-01T16:00:12;49.00;30.00
15013;DHT22;7603;49.432;11.418;2022-08-01T16:02:39;50.60;29.10
15013;DHT22;7603;49.432;11.418;2022-08-01T16:05:05;51.40;28.50
15013;DHT22;7603;49.432;11.418;2022-08-01T16:07:31;51.20;28.20